Time;durP1;ratioP1;P1;durP2;ratioP2;P2;SDS_P1;SDS_P2;PMS_P1;PMS_P2;Temp;Humidity;BMP_temperature;BMP_pressure;BME280_temperature;BME280_humidity;BME280_pressure;Samples;Min_cycle;Max_cycle;Signal;HPM_P1;HPM_P2
2023/12/02 00:02:05;;;;;;;;;;;;;;;-0.87;100.00;94060.28;10592931;27;2875;-71
2023/12/02 00:07:07;;;;;;;;;;;;;;;-0.97;100.00;94054.84;10587227;27;2863;-71
2023/12/02 00:12:10;;;;;;;;;;;;;;;-0.89;100.00;94049.13;10597527;27;3227;-73
2023/12/02 00:17:13;;;;;;;;;;;;;;;-0.97;100.00;94054.84;10595374;27;2912;-69
2023/12/02 00:22:16;;;;;;;;;;;;;;;-0.88;100.00;94051.56;10592561;27;3181;-71
2023/12/02 00:27:19;;;;;;;;;;;;;;;-0.92;100.00;94052.28;10592598;27;2896;-71
2023/12/02 00:32:21;;;;;;;;;;;;;;;-0.97;100.00;94044.28;10596896;27;2885;-72
2023/12/02 00:37:31;;;;;;;;;;;;;;;-1.01;100.00;94053.75;10592355;27;3270;-71
2023/12/02 00:42:34;;;;;;;;;;;;;;;-1.01;100.00;94045.84;10601928;27;3124;-73
2023/12/02 00:47:36;;;;;;;;;;;;;;;-1.02;100.00;94055.56;10595478;27;4686;-74
2023/12/02 00:52:39;;;;;;;;;;;;;;;-0.87;100.00;94061.06;10593531;27;2858;-72
2023/12/02 00:57:42;;;;;;;;;;;;;;;-0.88;100.00;94063.94;10575933;27;2873;-72
2023/12/02 01:02:45;;;;;;;;;;;;;;;-1.07;100.00;94054.72;10594068;27;2819;-73
2023/12/02 01:07:47;;;;;;;;;;;;;;;-1.01;100.00;94074.84;10586508;27;2946;-72
2023/12/02 01:12:50;;;;;;;;;;;;;;;-1.01;100.00;94074.84;10593003;27;2884;-71
2023/12/02 01:17:52;;;;;;;;;;;;;;;-1.11;100.00;94081.56;10587504;27;2824;-75
2023/12/02 01:22:55;;;;;;;;;;;;;;;-1.02;100.00;94078.50;10589631;27;2891;-72
2023/12/02 01:27:58;;;;;;;;;;;;;;;-1.01;100.00;94080.94;10586628;27;2847;-77
2023/12/02 01:33:01;;;;;;;;;;;;;;;-0.79;100.00;94073.03;10590379;27;2833;-73
2023/12/02 01:38:05;;;;;;;;;;;;;;;-1.04;100.00;94064.78;10591425;27;2949;-73
2023/12/02 01:43:08;;;;;;;;;;;;;;;-1.00;100.00;94052.72;10585493;27;4657;-72
2023/12/02 01:48:11;;;;;;;;;;;;;;;-1.06;100.00;94056.31;10587960;27;2894;-72
2023/12/02 01:53:13;;;;;;;;;;;;;;;-1.09;100.00;94068.94;10590580;27;2866;-71
2023/12/02 01:58:16;;;;;;;;;;;;;;;-1.13;100.00;94062.56;10588393;27;2781;-72
2023/12/02 02:03:19;;;;;;;;;;;;;;;-1.06;100.00;94051.84;10585004;27;2847;-71
2023/12/02 02:08:21;;;;;;;;;;;;;;;-1.04;100.00;94056.88;10592725;27;2907;-71
2023/12/02 02:13:25;;;;;;;;;;;;;;;-0.94;100.00;94049.09;10587767;27;2950;-74
2023/12/02 02:18:28;;;;;;;;;;;;;;;-1.15;100.00;94054.06;10591480;27;2853;-73
2023/12/02 02:23:35;;;;;;;;;;;;;;;-1.16;100.00;94046.41;10592671;27;2787;-76
2023/12/02 02:28:38;;;;;;;;;;;;;;;-1.24;100.00;94047.63;10589600;27;2804;-72
2023/12/02 02:33:44;;;;;;;;;;;;;;;-1.34;100.00;94054.59;10588379;27;2894;-71
2023/12/02 02:38:47;;;;;;;;;;;;;;;-1.15;100.00;94059.34;10586106;27;2943;-73
2023/12/02 02:43:49;;;;;;;;;;;;;;;-1.38;100.00;94054.28;10589072;27;4610;-72
2023/12/02 02:48:55;;;;;;;;;;;;;;;-1.31;100.00;94065.47;10592369;27;2840;-74
2023/12/02 02:53:58;;;;;;;;;;;;;;;-1.05;100.00;94063.19;10579517;27;2891;-72
2023/12/02 02:59:00;;;;;;;;;;;;;;;-1.05;100.00;94068.47;10602166;27;2873;-72
2023/12/02 03:04:03;;;;;;;;;;;;;;;-1.21;100.00;94081.44;10592539;27;2812;-73
2023/12/02 03:09:07;;;;;;;;;;;;;;;-1.32;100.00;94076.25;10578453;27;2942;-72
2023/12/02 03:14:09;;;;;;;;;;;;;;;-1.27;100.00;94071.84;10581705;27;2873;-75
2023/12/02 03:19:13;;;;;;;;;;;;;;;-1.39;100.00;94064.03;10613753;27;2941;-70
2023/12/02 03:24:16;;;;;;;;;;;;;;;-1.27;100.00;94082.41;10594470;27;2877;-72
2023/12/02 03:29:18;;;;;;;;;;;;;;;-1.49;100.00;94078.88;10601713;27;2921;-75
2023/12/02 03:34:21;;;;;;;;;;;;;;;-1.56;100.00;94084.31;10595480;27;2994;-71
2023/12/02 03:39:24;;;;;;;;;;;;;;;-1.66;100.00;94092.84;10596685;27;2803;-71
2023/12/02 03:44:29;;;;;;;;;;;;;;;-1.53;100.00;94098.84;10589732;27;4606;-70
2023/12/02 03:49:32;;;;;;;;;;;;;;;-1.18;100.00;94117.06;10585431;27;2816;-70
2023/12/02 03:54:35;;;;;;;;;;;;;;;-1.53;100.00;94114.66;10589396;27;2822;-69
2023/12/02 03:59:37;;;;;;;;;;;;;;;-1.63;100.00;94100.28;10594531;27;2873;-71
2023/12/02 04:04:40;;;;;;;;;;;;;;;-1.51;100.00;94075.69;10587706;27;2872;-71
2023/12/02 04:09:44;;;;;;;;;;;;;;;-1.77;100.00;94074.50;10588995;27;3021;-70
2023/12/02 04:14:47;;;;;;;;;;;;;;;-1.80;100.00;94052.06;10590568;27;2847;-72
2023/12/02 04:19:49;;;;;;;;;;;;;;;-1.78;100.00;94070.25;10588568;27;2898;-70
2023/12/02 04:24:52;;;;;;;;;;;;;;;-1.83;100.00;94128.13;10593023;27;2832;-72
2023/12/02 04:29:54;;;;;;;;;;;;;;;-1.67;100.00;94151.84;10592671;27;2948;-72
2023/12/02 04:34:57;;;;;;;;;;;;;;;-1.44;100.00;94150.13;10596106;27;2796;-74
2023/12/02 04:40:00;;;;;;;;;;;;;;;-1.56;100.00;94130.94;10588198;27;2868;-71
2023/12/02 04:45:03;;;;;;;;;;;;;;;-1.64;100.00;94127.69;10595949;27;4794;-73
2023/12/02 04:50:06;;;;;;;;;;;;;;;-1.74;100.00;94130.13;10570744;27;2867;-72
2023/12/02 04:55:09;;;;;;;;;;;;;;;-1.66;100.00;94103.38;10589685;27;2834;-69
2023/12/02 05:00:16;;;;;;;;;;;;;;;-1.76;100.00;94110.34;10588108;27;2821;-70
2023/12/02 05:05:19;;;;;;;;;;;;;;;-1.52;100.00;94134.72;10586103;27;2914;-69
2023/12/02 05:10:21;;;;;;;;;;;;;;;-1.81;100.00;94133.94;10588126;27;3136;-71
2023/12/02 05:15:24;;;;;;;;;;;;;;;-1.64;100.00;94150.59;10572633;27;2846;-71
2023/12/02 05:20:27;;;;;;;;;;;;;;;-1.59;100.00;94163.84;10585283;27;3258;-77
2023/12/02 05:25:29;;;;;;;;;;;;;;;-1.54;100.00;94179.72;10590297;27;2925;-72
2023/12/02 05:30:34;;;;;;;;;;;;;;;-1.64;100.00;94174.31;10590217;27;2917;-70
2023/12/02 05:35:37;;;;;;;;;;;;;;;-1.68;100.00;94192.41;10586211;27;2789;-70
2023/12/02 05:40:39;;;;;;;;;;;;;;;-1.97;100.00;94198.72;10590833;27;2854;-71
2023/12/02 05:45:42;;;;;;;;;;;;;;;-2.03;100.00;94186.50;10591835;27;4716;-71
2023/12/02 05:50:44;;;;;;;;;;;;;;;-2.09;100.00;94187.44;10592895;27;2851;-71
2023/12/02 05:55:47;;;;;;;;;;;;;;;-1.75;100.00;94185.69;10591080;27;2845;-72
2023/12/02 06:00:51;;;;;;;;;;;;;;;-1.83;100.00;94184.22;10595890;27;2867;-72
2023/12/02 06:05:53;;;;;;;;;;;;;;;-1.86;100.00;94174.16;10589545;27;2871;-74
2023/12/02 06:10:56;;;;;;;;;;;;;;;-2.00;100.00;94189.44;10590723;27;2911;-70
2023/12/02 06:15:58;;;;;;;;;;;;;;;-1.79;100.00;94195.09;10595349;27;2782;-70
2023/12/02 06:21:03;;;;;;;;;;;;;;;-1.97;100.00;94209.25;10600752;27;2827;-70
2023/12/02 06:26:08;;;;;;;;;;;;;;;-1.82;100.00;94233.25;10576908;27;2902;-69
2023/12/02 06:31:10;;;;;;;;;;;;;;;-1.70;100.00;94241.09;10598463;27;2812;-71
2023/12/02 06:36:14;;;;;;;;;;;;;;;-1.69;100.00;94243.50;10593881;27;2839;-71
2023/12/02 06:41:17;;;;;;;;;;;;;;;-1.59;100.00;94249.97;10598601;27;2924;-69
2023/12/02 06:46:20;;;;;;;;;;;;;;;-1.58;100.00;94251.59;10591621;27;4769;-70
2023/12/02 06:51:28;;;;;;;;;;;;;;;-1.69;100.00;94264.56;10594702;27;2857;-69
2023/12/02 06:56:31;;;;;;;;;;;;;;;-1.53;100.00;94281.47;10577007;27;2850;-71
2023/12/02 07:01:34;;;;;;;;;;;;;;;-1.58;100.00;94297.19;10581936;27;2808;-68
2023/12/02 07:06:39;;;;;;;;;;;;;;;-1.45;100.00;94298.75;10594307;27;2882;-74
2023/12/02 07:11:42;;;;;;;;;;;;;;;-1.46;100.00;94315.63;10597680;27;3077;-71
2023/12/02 07:16:45;;;;;;;;;;;;;;;-1.26;100.00;94317.84;10590314;27;2863;-69
2023/12/02 07:21:48;;;;;;;;;;;;;;;-1.26;100.00;94323.09;10587552;27;3131;-70
2023/12/02 07:26:50;;;;;;;;;;;;;;;-1.34;100.00;94328.72;10592234;27;2855;-70
2023/12/02 07:31:52;;;;;;;;;;;;;;;-1.17;100.00;94333.03;10593595;27;2928;-70
2023/12/02 07:36:55;;;;;;;;;;;;;;;-1.27;100.00;94340.75;10592511;27;2807;-70
2023/12/02 07:41:58;;;;;;;;;;;;;;;-1.14;100.00;94345.75;10587863;27;3203;-68
2023/12/02 07:47:01;;;;;;;;;;;;;;;-1.25;100.00;94341.31;10588007;27;4649;-69
2023/12/02 07:52:03;;;;;;;;;;;;;;;-1.44;100.00;94345.16;10600036;27;2804;-70
2023/12/02 07:57:10;;;;;;;;;;;;;;;-1.27;100.00;94332.03;10594831;27;2805;-71
2023/12/02 08:02:13;;;;;;;;;;;;;;;-1.50;100.00;94330.28;10594406;27;2843;-70
2023/12/02 08:07:15;;;;;;;;;;;;;;;-1.45;100.00;94333.03;10595610;27;2891;-70
2023/12/02 08:12:18;;;;;;;;;;;;;;;-1.83;100.00;94336.22;10596226;27;2847;-71
2023/12/02 08:17:21;;;;;;;;;;;;;;;-1.66;100.00;94355.50;10596202;27;2822;-72
2023/12/02 08:22:24;;;;;;;;;;;;;;;-1.55;100.00;94365.22;10590527;27;3052;-76
2023/12/02 08:27:27;;;;;;;;;;;;;;;-1.49;100.00;94363.50;10597431;27;2795;-72
2023/12/02 08:32:29;;;;;;;;;;;;;;;-1.48;100.00;94359.84;10588403;27;2847;-72
2023/12/02 08:37:34;;;;;;;;;;;;;;;-1.31;100.00;94375.72;10597364;27;2937;-68
2023/12/02 08:42:37;;;;;;;;;;;;;;;-1.60;100.00;94377.50;10582697;27;2857;-72
2023/12/02 08:47:40;;;;;;;;;;;;;;;-1.43;100.00;94371.28;10584319;27;4764;-71
2023/12/02 08:52:43;;;;;;;;;;;;;;;-1.53;100.00;94372.91;10590449;27;2899;-72
2023/12/02 08:57:48;;;;;;;;;;;;;;;-1.68;100.00;94387.38;10593510;27;2942;-68
2023/12/02 09:02:51;;;;;;;;;;;;;;;-1.30;100.00;94393.94;10592334;27;2791;-68
2023/12/02 09:07:54;;;;;;;;;;;;;;;-1.45;100.00;94391.00;10595788;27;2926;-70
2023/12/02 09:12:57;;;;;;;;;;;;;;;-1.58;100.00;94412.34;10597378;27;2943;-70
2023/12/02 09:18:00;;;;;;;;;;;;;;;-1.71;100.00;94422.09;10588043;27;2823;-69
2023/12/02 09:23:02;;;;;;;;;;;;;;;-1.77;100.00;94430.91;10584315;27;2815;-70
2023/12/02 09:28:06;;;;;;;;;;;;;;;-1.82;100.00;94422.88;10589942;27;2804;-69
2023/12/02 09:33:09;;;;;;;;;;;;;;;-1.62;100.00;94422.53;10593348;27;2784;-69
2023/12/02 09:38:12;;;;;;;;;;;;;;;-1.46;100.00;94426.31;10595894;27;2905;-70
2023/12/02 09:43:14;;;;;;;;;;;;;;;-1.42;100.00;94419.53;10591031;27;4850;-69
2023/12/02 09:48:17;;;;;;;;;;;;;;;-1.45;100.00;94406.81;10593566;27;2904;-71
2023/12/02 09:53:20;;;;;;;;;;;;;;;-1.74;100.00;94427.81;10593689;27;2900;-71
2023/12/02 09:58:22;;;;;;;;;;;;;;;-1.69;100.00;94446.38;10589636;27;2816;-71
2023/12/02 10:03:26;;;;;;;;;;;;;;;-1.86;100.00;94468.34;10593101;27;2846;-68
2023/12/02 10:08:32;;;;;;;;;;;;;;;-1.75;100.00;94481.53;10597467;27;2936;-69
2023/12/02 10:13:38;;;;;;;;;;;;;;;-1.53;100.00;94525.75;10589080;27;2763;-70
2023/12/02 10:18:40;;;;;;;;;;;;;;;-1.51;100.00;94560.59;10591052;27;2846;-70
2023/12/02 10:23:43;;;;;;;;;;;;;;;-1.53;100.00;94571.34;10573379;27;2924;-70
2023/12/02 10:28:46;;;;;;;;;;;;;;;-1.95;100.00;94555.59;10585654;27;2951;-69
2023/12/02 10:33:48;;;;;;;;;;;;;;;-2.13;100.00;94533.81;10591091;27;2898;-71
2023/12/02 10:38:51;;;;;;;;;;;;;;;-1.83;100.00;94526.66;10596785;27;2820;-71
2023/12/02 10:44:00;;;;;;;;;;;;;;;-1.92;100.00;94528.00;10591363;27;2876;-69
2023/12/02 10:49:03;;;;;;;;;;;;;;;-1.98;100.00;94513.91;10594184;27;2863;-69
2023/12/02 10:54:06;;;;;;;;;;;;;;;-1.84;100.00;94524.25;10575351;27;2861;-71
2023/12/02 10:59:10;;;;;;;;;;;;;;;-1.80;100.00;94526.19;10594724;27;3254;-69
2023/12/02 11:04:12;;;;;;;;;;;;;;;-1.74;100.00;94522.66;10592612;27;2897;-70
2023/12/02 11:09:16;;;;;;;;;;;;;;;-1.78;100.00;94537.31;10604020;27;2919;-71
2023/12/02 11:14:21;;;;;;;;;;;;;;;-1.48;100.00;94531.13;10605775;27;2922;-70
2023/12/02 11:19:24;;;;;;;;;;;;;;;-1.59;100.00;94526.66;10600965;27;2804;-69
2023/12/02 11:24:27;;;;;;;;;;;;;;;-1.55;100.00;94548.91;10606936;27;2986;-75
2023/12/02 11:29:31;;;;;;;;;;;;;;;-1.57;100.00;94566.78;10594624;27;2845;-69
2023/12/02 11:34:34;;;;;;;;;;;;;;;-1.71;100.00;94577.53;10597396;27;2800;-69
2023/12/02 11:39:37;;;;;;;;;;;;;;;-1.91;100.00;94600.72;10597425;27;2833;-69
2023/12/02 11:44:41;;;;;;;;;;;;;;;-1.92;100.00;94622.81;10579316;27;4305;-70
2023/12/02 11:49:45;;;;;;;;;;;;;;;-1.60;100.00;94636.53;10602055;27;2871;-70
2023/12/02 11:54:47;;;;;;;;;;;;;;;-1.39;100.00;94636.03;10601702;27;2882;-68
2023/12/02 11:59:51;;;;;;;;;;;;;;;-1.31;100.00;94647.25;10598064;27;2944;-68
2023/12/02 12:04:53;;;;;;;;;;;;;;;-1.30;100.00;94654.94;10597116;27;3021;-69
2023/12/02 12:09:56;;;;;;;;;;;;;;;-1.41;100.00;94668.91;10593463;27;2879;-67
2023/12/02 12:15:00;;;;;;;;;;;;;;;-1.45;100.00;94684.38;10596563;27;2933;-69
2023/12/02 12:20:03;;;;;;;;;;;;;;;-1.71;100.00;94693.47;10598244;27;2848;-69
2023/12/02 12:25:06;;;;;;;;;;;;;;;-1.65;100.00;94712.84;10592380;27;2847;-69
2023/12/02 12:30:09;;;;;;;;;;;;;;;-1.47;100.00;94717.25;10598040;27;2887;-74
2023/12/02 12:35:12;;;;;;;;;;;;;;;-1.49;100.00;94732.47;10597296;27;2807;-74
2023/12/02 12:40:15;;;;;;;;;;;;;;;-1.41;100.00;94745.34;10592107;27;2835;-69
2023/12/02 12:45:20;;;;;;;;;;;;;;;-1.70;100.00;94737.22;10597216;27;4730;-68
2023/12/02 12:50:24;;;;;;;;;;;;;;;-1.57;100.00;94756.53;10589901;27;2902;-67
2023/12/02 12:55:28;;;;;;;;;;;;;;;-1.50;100.00;94767.78;10585388;27;2834;-69
2023/12/02 13:00:30;;;;;;;;;;;;;;;-1.46;100.00;94768.94;10593806;27;2841;-69
2023/12/02 13:05:33;;;;;;;;;;;;;;;-1.64;100.00;94778.50;10594493;27;2840;-69
2023/12/02 13:10:36;;;;;;;;;;;;;;;-1.69;100.00;94783.63;10602300;27;2864;-69
2023/12/02 13:15:39;;;;;;;;;;;;;;;-2.06;100.00;94792.56;10594807;27;2860;-67
2023/12/02 13:20:41;;;;;;;;;;;;;;;-2.08;100.00;94803.31;10600885;27;2854;-70
2023/12/02 13:25:44;;;;;;;;;;;;;;;-1.84;100.00;94809.53;10590609;27;2817;-68
2023/12/02 13:30:46;;;;;;;;;;;;;;;-1.68;100.00;94818.69;10597725;27;2861;-71
2023/12/02 13:35:49;;;;;;;;;;;;;;;-1.47;100.00;94827.94;10602083;27;2920;-71
2023/12/02 13:40:52;;;;;;;;;;;;;;;-1.39;100.00;94835.56;10605877;27;2317;-68
2023/12/02 13:45:55;;;;;;;;;;;;;;;-1.57;100.00;94841.66;10608696;27;4726;-70
2023/12/02 13:51:02;;;;;;;;;;;;;;;-1.64;100.00;94857.53;10586809;27;1429;-69
2023/12/02 13:56:05;;;;;;;;;;;;;;;-2.13;100.00;94862.91;10606666;27;2229;-69
2023/12/02 14:01:07;;;;;;;;;;;;;;;-2.20;100.00;94873.50;10588128;27;2775;-70
2023/12/02 14:06:10;;;;;;;;;;;;;;;-2.17;100.00;94880.97;10604932;27;2099;-71
2023/12/02 14:11:13;;;;;;;;;;;;;;;-2.15;100.00;94893.94;10604714;27;2108;-70
2023/12/02 14:16:18;;;;;;;;;;;;;;;-2.32;100.00;94907.63;10607806;27;1698;-69
2023/12/02 14:21:20;;;;;;;;;;;;;;;-2.33;100.00;94921.81;10602394;27;1914;-73
2023/12/02 14:26:23;;;;;;;;;;;;;;;-2.50;100.00;94920.72;10610737;27;2478;-69
2023/12/02 14:31:27;;;;;;;;;;;;;;;-2.69;100.00;94932.97;10608783;27;1603;-71
2023/12/02 14:36:30;;;;;;;;;;;;;;;-2.68;100.00;94953.00;10610203;27;1887;-69
2023/12/02 14:41:32;;;;;;;;;;;;;;;-2.75;100.00;94955.66;10609696;27;2755;-70
2023/12/02 14:46:35;;;;;;;;;;;;;;;-2.88;100.00;94966.25;10611512;27;2021;-73
2023/12/02 14:51:38;;;;;;;;;;;;;;;-3.11;100.00;94979.91;10612801;27;1789;-71
2023/12/02 14:56:41;;;;;;;;;;;;;;;-3.01;100.00;94988.16;10595283;27;2174;-71
2023/12/02 15:01:45;;;;;;;;;;;;;;;-3.04;100.00;95004.38;10616425;27;2000;-69
2023/12/02 15:06:48;;;;;;;;;;;;;;;-3.21;100.00;95018.16;10618173;27;2271;-68
2023/12/02 15:11:51;;;;;;;;;;;;;;;-3.15;100.00;95038.38;10618495;27;1663;-70
2023/12/02 15:16:54;;;;;;;;;;;;;;;-3.59;100.00;95047.75;10617826;27;1384;-69
2023/12/02 15:21:56;;;;;;;;;;;;;;;-3.49;100.00;95069.16;10613166;27;1976;-69
2023/12/02 15:26:59;;;;;;;;;;;;;;;-3.51;100.00;95076.41;10594250;27;1668;-68
2023/12/02 15:32:03;;;;;;;;;;;;;;;-3.41;100.00;95086.53;10611247;27;1915;-69
2023/12/02 15:37:11;;;;;;;;;;;;;;;-3.23;100.00;95088.53;10608051;27;2850;-69
2023/12/02 15:42:14;;;;;;;;;;;;;;;-3.34;100.00;95097.84;10604743;27;2822;-68
2023/12/02 15:47:17;;;;;;;;;;;;;;;-3.39;100.00;95114.22;10613326;27;4728;-68
2023/12/02 15:52:20;;;;;;;;;;;;;;;-3.44;100.00;95123.72;10608686;27;1443;-68
2023/12/02 15:57:24;;;;;;;;;;;;;;;-3.40;100.00;95141.50;10599658;27;2895;-70
2023/12/02 16:02:28;;;;;;;;;;;;;;;-3.37;100.00;95151.63;10591857;27;2992;-69
2023/12/02 16:07:30;;;;;;;;;;;;;;;-3.33;100.00;95163.34;10595637;27;2947;-69
2023/12/02 16:12:34;;;;;;;;;;;;;;;-3.26;100.00;95169.41;10593086;27;2838;-69
2023/12/02 16:17:36;;;;;;;;;;;;;;;-3.33;100.00;95180.94;10593145;27;2843;-69
2023/12/02 16:22:40;;;;;;;;;;;;;;;-3.45;100.00;95193.84;10596263;27;2862;-69
2023/12/02 16:27:42;;;;;;;;;;;;;;;-3.38;100.00;95220.13;10602335;27;2891;-72
2023/12/02 16:32:45;;;;;;;;;;;;;;;-3.25;100.00;95228.03;10595155;27;2855;-71
2023/12/02 16:37:47;;;;;;;;;;;;;;;-3.21;100.00;95246.84;10597292;27;2863;-71
2023/12/02 16:42:50;;;;;;;;;;;;;;;-3.21;100.00;95250.28;10593776;27;2958;-76
2023/12/02 16:47:55;;;;;;;;;;;;;;;-3.10;100.00;95256.78;10592163;27;4943;-70
2023/12/02 16:52:58;;;;;;;;;;;;;;;-3.21;100.00;95273.13;10594158;27;2835;-69
2023/12/02 16:58:01;;;;;;;;;;;;;;;-3.15;100.00;95281.03;10598104;27;3378;-69
2023/12/02 17:03:10;;;;;;;;;;;;;;;-3.33;100.00;95289.50;10592344;27;2812;-70
2023/12/02 17:08:12;;;;;;;;;;;;;;;-3.38;100.00;95294.53;10599009;27;2853;-69
2023/12/02 17:13:15;;;;;;;;;;;;;;;-3.25;100.00;95306.88;10594282;27;2932;-67
2023/12/02 17:18:18;;;;;;;;;;;;;;;-3.29;100.00;95319.63;10593968;27;2986;-69
2023/12/02 17:23:22;;;;;;;;;;;;;;;-3.32;100.00;95321.84;10595864;27;2826;-74
2023/12/02 17:28:24;;;;;;;;;;;;;;;-3.16;100.00;95346.97;10579169;27;2937;-70
2023/12/02 17:33:28;;;;;;;;;;;;;;;-3.04;100.00;95356.72;10590977;27;2887;-72
2023/12/02 17:38:30;;;;;;;;;;;;;;;-3.42;100.00;95366.91;10595970;27;2983;-70
2023/12/02 17:43:34;;;;;;;;;;;;;;;-3.33;100.00;95378.03;10597249;27;4641;-69
2023/12/02 17:48:38;;;;;;;;;;;;;;;-3.37;100.00;95387.31;10591429;27;3268;-69
2023/12/02 17:53:40;;;;;;;;;;;;;;;-3.20;100.00;95398.31;10597729;27;2916;-69
2023/12/02 17:58:44;;;;;;;;;;;;;;;-3.24;100.00;95418.09;10592050;27;2927;-70
2023/12/02 18:03:47;;;;;;;;;;;;;;;-3.21;100.00;95425.63;10591117;27;2830;-71
2023/12/02 18:08:51;;;;;;;;;;;;;;;-3.13;100.00;95428.06;10589421;27;2814;-71
2023/12/02 18:13:53;;;;;;;;;;;;;;;-3.17;100.00;95429.47;10599390;27;2800;-69
2023/12/02 18:18:56;;;;;;;;;;;;;;;-3.12;100.00;95442.81;10594527;27;2803;-68
2023/12/02 18:24:02;;;;;;;;;;;;;;;-3.10;100.00;95446.09;10601061;27;3106;-73
2023/12/02 18:29:07;;;;;;;;;;;;;;;-3.28;100.00;95459.75;10603672;27;2808;-69
2023/12/02 18:34:10;;;;;;;;;;;;;;;-3.20;100.00;95471.91;10600195;27;2878;-70
2023/12/02 18:39:14;;;;;;;;;;;;;;;-3.34;100.00;95471.84;10590040;27;3022;-69
2023/12/02 18:44:17;;;;;;;;;;;;;;;-3.23;100.00;95482.84;10596065;27;4780;-76
2023/12/02 18:49:21;;;;;;;;;;;;;;;-3.33;100.00;95486.63;10604960;27;2888;-68
2023/12/02 18:54:24;;;;;;;;;;;;;;;-3.21;100.00;95497.41;10603809;27;2856;-69
2023/12/02 18:59:27;;;;;;;;;;;;;;;-3.14;100.00;95514.00;10599021;27;2877;-68
2023/12/02 19:04:31;;;;;;;;;;;;;;;-3.19;100.00;95515.59;10599911;27;2902;-72
2023/12/02 19:09:34;;;;;;;;;;;;;;;-3.34;100.00;95518.34;10601106;27;2974;-70
2023/12/02 19:14:37;;;;;;;;;;;;;;;-3.39;100.00;95526.81;10605305;27;2851;-69
2023/12/02 19:19:39;;;;;;;;;;;;;;;-3.56;100.00;95543.91;10598883;27;2839;-71
2023/12/02 19:24:42;;;;;;;;;;;;;;;-3.57;100.00;95544.88;10599855;27;2920;-70
2023/12/02 19:29:46;;;;;;;;;;;;;;;-3.40;100.00;95545.41;10602679;27;2858;-69
2023/12/02 19:34:49;;;;;;;;;;;;;;;-3.30;100.00;95557.22;10606201;27;2923;-68
2023/12/02 19:39:54;;;;;;;;;;;;;;;-3.40;100.00;95567.25;10604802;27;2899;-69
2023/12/02 19:44:56;;;;;;;;;;;;;;;-3.17;100.00;95574.06;10597682;27;4638;-69
2023/12/02 19:49:59;;;;;;;;;;;;;;;-3.09;100.00;95581.81;10585682;27;2880;-68
2023/12/02 19:55:05;;;;;;;;;;;;;;;-3.02;100.00;95591.34;10596022;27;2954;-71
2023/12/02 20:00:08;;;;;;;;;;;;;;;-3.09;100.00;95602.84;10602515;27;2885;-68
2023/12/02 20:05:13;;;;;;;;;;;;;;;-2.74;100.00;95614.16;10603644;27;2973;-67
2023/12/02 20:10:16;;;;;;;;;;;;;;;-3.00;100.00;95631.41;10599746;27;2846;-71
2023/12/02 20:15:19;;;;;;;;;;;;;;;-3.03;100.00;95636.25;10603114;27;2877;-68
2023/12/02 20:20:22;;;;;;;;;;;;;;;-2.92;100.00;95641.00;10595321;27;2821;-69
2023/12/02 20:25:24;;;;;;;;;;;;;;;-3.05;100.00;95654.06;10599817;27;2917;-67
2023/12/02 20:30:27;;;;;;;;;;;;;;;-3.12;100.00;95661.06;10598520;27;2886;-68
2023/12/02 20:35:30;;;;;;;;;;;;;;;-3.26;100.00;95687.25;10597671;27;2979;-68
2023/12/02 20:40:33;;;;;;;;;;;;;;;-3.21;100.00;95689.31;10594401;27;2945;-73
2023/12/02 20:45:36;;;;;;;;;;;;;;;-3.25;100.00;95690.69;10591149;27;4692;-69
2023/12/02 20:50:40;;;;;;;;;;;;;;;-3.31;100.00;95702.78;10574763;27;2939;-69
2023/12/02 20:55:43;;;;;;;;;;;;;;;-3.40;100.00;95703.91;10591895;27;2905;-72
2023/12/02 21:00:46;;;;;;;;;;;;;;;-3.47;100.00;95710.91;10579609;27;2825;-68
2023/12/02 21:05:50;;;;;;;;;;;;;;;-3.43;100.00;95709.56;10602376;27;2991;-68
2023/12/02 21:10:53;;;;;;;;;;;;;;;-3.41;100.00;95715.44;10593857;27;2922;-74
2023/12/02 21:15:56;;;;;;;;;;;;;;;-3.33;100.00;95715.28;10594546;27;2863;-69
2023/12/02 21:20:59;;;;;;;;;;;;;;;-3.44;100.00;95712.34;10591766;27;3235;-68
2023/12/02 21:26:01;;;;;;;;;;;;;;;-3.62;100.00;95715.44;10596959;27;2865;-68
2023/12/02 21:31:04;;;;;;;;;;;;;;;-3.60;100.00;95716.06;10601518;27;3221;-66
2023/12/02 21:36:10;;;;;;;;;;;;;;;-3.74;100.00;95727.44;10591356;27;2831;-67
2023/12/02 21:41:13;;;;;;;;;;;;;;;-3.68;100.00;95737.19;10601152;27;2869;-69
2023/12/02 21:46:15;;;;;;;;;;;;;;;-3.69;100.00;95746.03;10598251;27;2785;-68
2023/12/02 21:51:18;;;;;;;;;;;;;;;-3.66;100.00;95746.50;10590932;27;2794;-69
2023/12/02 21:56:22;;;;;;;;;;;;;;;-3.91;100.00;95748.66;10572884;27;2796;-68
2023/12/02 22:01:24;;;;;;;;;;;;;;;-4.01;100.00;95755.16;10594989;27;3037;-67
2023/12/02 22:06:27;;;;;;;;;;;;;;;-4.04;100.00;95760.81;10594665;27;2919;-68
2023/12/02 22:11:31;;;;;;;;;;;;;;;-4.16;100.00;95770.94;10594041;27;2965;-74
2023/12/02 22:16:35;;;;;;;;;;;;;;;-4.26;100.00;95768.63;10594403;27;2935;-68
2023/12/02 22:21:38;;;;;;;;;;;;;;;-4.49;100.00;95776.56;10594942;27;2797;-66
2023/12/02 22:26:40;;;;;;;;;;;;;;;-4.56;100.00;95801.06;10596216;27;2915;-68
2023/12/02 22:31:44;;;;;;;;;;;;;;;-4.66;100.00;95819.69;10597272;27;2830;-68
2023/12/02 22:36:47;;;;;;;;;;;;;;;-4.66;100.00;95833.59;10598707;27;2885;-67
2023/12/02 22:41:50;;;;;;;;;;;;;;;-4.59;100.00;95846.81;10598349;27;2862;-69
2023/12/02 22:46:53;;;;;;;;;;;;;;;-4.35;100.00;95856.28;10603465;27;4637;-69
2023/12/02 22:51:56;;;;;;;;;;;;;;;-4.53;100.00;95861.84;10592004;27;2893;-75
2023/12/02 22:56:59;;;;;;;;;;;;;;;-4.54;100.00;95864.66;10591610;27;2807;-72
2023/12/02 23:02:04;;;;;;;;;;;;;;;-4.48;100.00;95872.63;10595794;27;3100;-66
2023/12/02 23:07:06;;;;;;;;;;;;;;;-4.67;100.00;95867.88;10599558;27;2815;-68
2023/12/02 23:12:09;;;;;;;;;;;;;;;-4.51;100.00;95870.38;10602407;27;2869;-66
2023/12/02 23:17:12;;;;;;;;;;;;;;;-4.64;100.00;95857.88;10604843;27;2830;-67
2023/12/02 23:22:14;;;;;;;;;;;;;;;-4.57;100.00;95872.91;10605453;27;2856;-69
2023/12/02 23:27:17;;;;;;;;;;;;;;;-4.58;100.00;95872.09;10600766;27;2791;-68
2023/12/02 23:32:19;;;;;;;;;;;;;;;-4.57;100.00;95878.97;10602411;27;3490;-67
2023/12/02 23:37:22;;;;;;;;;;;;;;;-4.57;100.00;95876.34;10598877;27;2864;-68
2023/12/02 23:42:24;;;;;;;;;;;;;;;-4.63;100.00;95874.41;10582794;27;2919;-74
2023/12/02 23:47:27;;;;;;;;;;;;;;;-4.66;100.00;95875.56;10602008;27;4829;-71
2023/12/02 23:52:30;;;;;;;;;;;;;;;-4.57;100.00;95878.16;10597709;27;2883;-66
2023/12/02 23:57:33;;;;;;;;;;;;;;;-4.68;100.00;95884.63;10601017;27;2879;-67
